createdAt,value
2023-02-19T00:00:43.267Z,76.73
2023-02-19T00:03:11.034Z,73.66
2023-02-19T00:05:38.621Z,78.76
2023-02-19T00:08:06.324Z,81.05
2023-02-19T00:10:34.256Z,80.87
2023-02-19T00:13:01.978Z,81.75
2023-02-19T00:15:32.727Z,77.12
2023-02-19T00:18:00.428Z,78.87
2023-02-19T00:20:28.240Z,79.66
2023-02-19T00:22:58.375Z,78.72
2023-02-19T00:25:26.090Z,77.78
2023-02-19T00:27:53.791Z,82.28
2023-02-19T00:30:22.010Z,80.92
2023-02-19T00:32:52.932Z,86.19
2023-02-19T00:35:20.923Z,88.68
2023-02-19T00:37:48.787Z,88.67
2023-02-19T00:40:16.638Z,86.66
2023-02-19T00:42:44.250Z,87.45
2023-02-19T00:45:12.232Z,89.00
2023-02-19T00:47:39.800Z,89.87
2023-02-19T00:50:08.879Z,90.22
2023-02-19T00:52:36.624Z,87.48
2023-02-19T00:55:04.711Z,88.16
2023-02-19T00:57:32.402Z,86.63
2023-02-19T01:00:00.048Z,81.92
2023-02-19T01:02:27.791Z,74.94
2023-02-19T01:04:56.387Z,73.25
2023-02-19T01:07:24.462Z,71.64
2023-02-19T01:09:52.300Z,71.39
2023-02-19T01:12:19.919Z,74.04
2023-02-19T01:14:47.552Z,75.68
2023-02-19T01:17:15.216Z,68.37
2023-02-19T01:19:42.847Z,68.81
2023-02-19T01:22:10.570Z,64.83
2023-02-19T01:24:38.289Z,64.48
2023-02-19T01:27:05.966Z,67.10
2023-02-19T01:29:33.631Z,66.98
2023-02-19T01:32:01.334Z,66.38
2023-02-19T01:34:33.215Z,66.64
2023-02-19T01:37:00.892Z,63.92
2023-02-19T01:39:28.536Z,63.06
2023-02-19T01:41:56.300Z,60.74
2023-02-19T01:44:23.746Z,60.73
2023-02-19T01:46:53.184Z,61.58
2023-02-19T01:49:50.491Z,61.79
2023-02-19T01:52:32.724Z,61.49
2023-02-19T01:55:03.575Z,60.29
2023-02-19T01:57:40.268Z,61.05
2023-02-19T02:00:14.690Z,62.47
2023-02-19T02:02:46.179Z,62.49
2023-02-19T02:05:41.730Z,63.00
2023-02-19T02:08:28.379Z,62.29
2023-02-19T02:10:57.261Z,64.48
2023-02-19T02:13:25.160Z,66.54
2023-02-19T02:16:19.465Z,65.47
2023-02-19T02:19:00.096Z,62.91
2023-02-19T02:21:45.933Z,64.78
2023-02-19T02:24:41.909Z,68.67
2023-02-19T02:27:57.372Z,69.74
2023-02-19T02:30:55.311Z,70.40
2023-02-19T02:33:44.565Z,71.06
2023-02-19T02:36:27.650Z,73.26
2023-02-19T02:39:01.154Z,67.45
2023-02-19T02:41:29.217Z,65.46
2023-02-19T02:43:57.024Z,68.26
2023-02-19T02:46:38.482Z,68.42
2023-02-19T02:49:15.022Z,62.58
2023-02-19T02:51:49.063Z,59.68
2023-02-19T02:54:47.264Z,62.31
2023-02-19T02:57:17.892Z,59.42
2023-02-19T02:59:50.388Z,59.33
2023-02-19T03:02:26.237Z,60.51
2023-02-19T03:05:24.608Z,60.25
2023-02-19T03:08:29.961Z,60.66
2023-02-19T03:11:30.041Z,59.10
2023-02-19T03:14:27.509Z,59.08
2023-02-19T03:17:21.117Z,59.76
2023-02-19T03:19:54.237Z,58.98
2023-02-19T03:22:36.425Z,60.02
2023-02-19T03:25:31.119Z,63.72
2023-02-19T03:28:03.983Z,63.59
2023-02-19T03:30:36.169Z,60.63
2023-02-19T03:33:15.021Z,61.62
2023-02-19T03:36:02.701Z,61.43
2023-02-19T03:38:40.747Z,63.13
2023-02-19T03:41:21.411Z,59.98
2023-02-19T03:44:13.751Z,60.80
2023-02-19T03:47:09.822Z,63.24
2023-02-19T03:50:02.129Z,65.39
2023-02-19T03:52:58.770Z,64.75
2023-02-19T03:55:39.005Z,63.24
2023-02-19T03:58:26.047Z,60.92
2023-02-19T04:01:51.858Z,59.32
2023-02-19T04:04:29.324Z,61.46
2023-02-19T04:06:58.414Z,59.76
2023-02-19T04:09:41.688Z,60.67
2023-02-19T04:12:14.958Z,61.14
2023-02-19T04:15:04.177Z,65.23
2023-02-19T04:17:39.335Z,63.64
2023-02-19T04:20:11.658Z,65.32
2023-02-19T04:22:40.499Z,65.99
2023-02-19T04:25:09.086Z,65.11
2023-02-19T04:27:40.672Z,66.35
2023-02-19T04:30:13.212Z,64.19
2023-02-19T04:32:40.859Z,63.77
2023-02-19T04:35:08.721Z,64.19
2023-02-19T04:37:36.381Z,65.02
2023-02-19T04:40:04.436Z,64.52
2023-02-19T04:42:32.169Z,63.09
2023-02-19T04:44:59.784Z,60.90
2023-02-19T04:47:27.504Z,60.18
2023-02-19T04:49:55.363Z,61.19
2023-02-19T04:52:23.077Z,60.18
2023-02-19T04:54:51.154Z,60.15
2023-02-19T04:57:19.146Z,59.48
2023-02-19T04:59:47.490Z,58.98
2023-02-19T05:02:15.357Z,58.75
2023-02-19T05:04:45.214Z,58.44
2023-02-19T05:07:12.914Z,57.39
2023-02-19T05:09:40.584Z,59.06
2023-02-19T05:12:08.330Z,59.26
2023-02-19T05:14:35.997Z,57.17
2023-02-19T05:17:06.130Z,58.43
2023-02-19T05:19:36.194Z,58.01
2023-02-19T05:22:09.811Z,56.85
2023-02-19T05:24:40.528Z,59.49
2023-02-19T05:27:08.546Z,58.75
2023-02-19T05:29:36.346Z,57.19
2023-02-19T05:32:04.113Z,56.23
2023-02-19T05:34:31.870Z,54.92
2023-02-19T05:36:59.643Z,56.66
2023-02-19T05:39:27.341Z,58.27
2023-02-19T05:41:55.313Z,60.33
2023-02-19T05:44:23.068Z,62.87
2023-02-19T05:46:50.686Z,61.05
2023-02-19T05:49:18.520Z,57.91
2023-02-19T05:51:46.283Z,56.51
2023-02-19T05:54:16.775Z,55.85
2023-02-19T05:56:44.498Z,55.93
2023-02-19T05:59:25.520Z,59.89
2023-02-19T06:01:55.222Z,62.86
2023-02-19T06:04:23.474Z,64.22
2023-02-19T06:06:51.185Z,60.42
2023-02-19T06:09:19.034Z,64.25
2023-02-19T06:11:46.805Z,63.94
2023-02-19T06:14:14.804Z,62.28
2023-02-19T06:16:42.704Z,68.70
2023-02-19T06:19:10.624Z,74.22
2023-02-19T06:21:38.364Z,74.62
2023-02-19T06:24:09.349Z,68.55
2023-02-19T06:26:39.400Z,66.47
2023-02-19T06:29:07.367Z,62.57
2023-02-19T06:32:38.245Z,63.30
2023-02-19T06:35:13.573Z,62.75
2023-02-19T06:37:47.343Z,62.68
2023-02-19T06:40:15.945Z,64.16
2023-02-19T06:42:43.988Z,63.97
2023-02-19T06:45:15.432Z,64.54
2023-02-19T06:48:01.080Z,64.86
2023-02-19T06:50:57.816Z,63.39
2023-02-19T06:53:25.929Z,63.79
2023-02-19T06:56:27.944Z,70.46
2023-02-19T06:59:03.008Z,71.25
2023-02-19T07:01:35.017Z,69.96
2023-02-19T07:04:09.837Z,69.59
2023-02-19T07:06:38.258Z,64.84
2023-02-19T07:09:08.896Z,66.01
2023-02-19T07:11:44.848Z,67.35
2023-02-19T07:14:16.708Z,68.72
2023-02-19T07:16:44.795Z,66.11
2023-02-19T07:19:15.528Z,65.80
2023-02-19T07:21:43.469Z,66.20
2023-02-19T07:24:13.491Z,68.30
2023-02-19T07:26:41.414Z,70.90
2023-02-19T07:29:09.864Z,72.45
2023-02-19T07:31:39.953Z,73.44
2023-02-19T07:34:07.663Z,74.46
2023-02-19T07:36:35.364Z,74.21
2023-02-19T07:39:04.066Z,74.98
2023-02-19T07:41:34.056Z,76.40
2023-02-19T07:44:05.837Z,77.35
2023-02-19T07:46:38.051Z,76.86
2023-02-19T07:49:07.346Z,77.90
2023-02-19T07:51:35.452Z,79.01
2023-02-19T07:54:12.520Z,78.54
2023-02-19T07:56:43.540Z,78.54
2023-02-19T07:59:11.914Z,77.64
2023-02-19T08:01:58.322Z,80.21
2023-02-19T08:04:27.384Z,78.24
2023-02-19T08:06:55.393Z,78.53
2023-02-19T08:09:23.204Z,77.79
2023-02-19T08:12:09.449Z,78.10
2023-02-19T08:14:39.193Z,78.42
2023-02-19T08:17:07.012Z,78.44
2023-02-19T08:19:34.790Z,79.80
2023-02-19T08:22:08.583Z,78.98
2023-02-19T08:24:45.621Z,75.57
2023-02-19T08:27:27.675Z,73.99
2023-02-19T08:30:01.835Z,77.58
2023-02-19T08:32:36.974Z,74.05
2023-02-19T08:35:09.620Z,76.02
2023-02-19T08:37:37.799Z,76.00
2023-02-19T08:40:05.966Z,76.04
2023-02-19T08:42:39.237Z,71.21
2023-02-19T08:45:18.121Z,68.88
2023-02-19T08:47:52.410Z,69.62
2023-02-19T08:50:22.417Z,71.95
2023-02-19T08:52:50.526Z,70.16
2023-02-19T08:55:21.165Z,71.14
2023-02-19T08:57:50.587Z,71.92
2023-02-19T09:00:23.269Z,71.22
2023-02-19T09:03:00.802Z,70.21
2023-02-19T09:05:28.576Z,68.95
2023-02-19T09:07:58.858Z,71.79
2023-02-19T09:10:51.001Z,70.33
2023-02-19T09:13:25.616Z,71.65
2023-02-19T09:15:59.392Z,70.53
2023-02-19T09:18:27.216Z,70.03
2023-02-19T09:20:59.772Z,69.04
2023-02-19T09:23:38.208Z,66.91
2023-02-19T09:26:32.793Z,70.39
2023-02-19T09:32:12.827Z,70.08
2023-02-19T09:34:52.710Z,73.17
2023-02-19T09:37:51.307Z,72.34
2023-02-19T09:45:00.992Z,69.37
2023-02-19T09:48:27.565Z,70.38
2023-02-19T09:54:58.750Z,70.91
2023-02-19T09:57:49.524Z,68.23
2023-02-19T10:05:43.747Z,68.25
2023-02-19T10:08:48.961Z,66.47
2023-02-19T10:12:22.469Z,67.74
2023-02-19T10:16:09.392Z,64.46
2023-02-19T10:19:12.133Z,62.91
2023-02-19T10:22:11.558Z,63.00
2023-02-19T10:24:49.969Z,63.24
2023-02-19T10:27:18.105Z,61.98
2023-02-19T10:29:50.118Z,62.64
2023-02-19T10:32:24.135Z,64.61
2023-02-19T10:35:17.882Z,65.15
2023-02-19T10:48:11.512Z,61.57
2023-02-19T10:51:21.803Z,61.11
2023-02-19T10:54:30.259Z,59.43
2023-02-19T11:03:11.025Z,59.36
2023-02-19T11:06:09.610Z,56.84
2023-02-19T11:08:57.253Z,58.41
2023-02-19T11:11:35.637Z,58.51
2023-02-19T11:14:19.945Z,58.70
2023-02-19T11:16:52.656Z,59.70
2023-02-19T11:19:26.585Z,57.39
2023-02-19T11:21:59.280Z,57.02
2023-02-19T11:24:38.365Z,57.08
2023-02-19T11:27:23.269Z,58.40
2023-02-19T11:29:51.466Z,57.26
2023-02-19T11:32:29.661Z,57.03
2023-02-19T11:35:54.983Z,58.03
2023-02-19T11:38:22.958Z,53.18
2023-02-19T11:41:22.511Z,52.34
2023-02-19T11:44:01.387Z,54.15
2023-02-19T11:47:01.105Z,54.52
2023-02-19T11:50:02.300Z,53.80
2023-02-19T11:52:42.494Z,53.66
2023-02-19T11:55:22.126Z,53.45
2023-02-19T11:58:24.372Z,51.54
2023-02-19T12:01:46.373Z,52.81
2023-02-19T12:05:12.003Z,49.91
2023-02-19T12:08:06.936Z,51.30
2023-02-19T12:10:50.001Z,52.53
2023-02-19T12:14:12.099Z,49.83
2023-02-19T12:17:07.108Z,51.13
2023-02-19T12:20:02.108Z,50.70
2023-02-19T12:23:13.470Z,51.40
2023-02-19T12:26:32.805Z,50.52
2023-02-19T12:29:50.952Z,48.32
2023-02-19T12:33:13.179Z,47.47
2023-02-19T12:35:52.710Z,49.84
2023-02-19T12:38:36.425Z,46.64
2023-02-19T12:41:39.284Z,48.34
2023-02-19T12:44:33.753Z,49.14
2023-02-19T12:47:08.576Z,48.92
2023-02-19T12:49:51.057Z,49.38
2023-02-19T12:52:25.915Z,49.75
2023-02-19T12:55:02.399Z,50.28
2023-02-19T12:57:37.011Z,50.03
2023-02-19T13:00:22.364Z,49.87
2023-02-19T13:03:11.832Z,50.42
2023-02-19T13:06:01.335Z,47.50
2023-02-19T13:08:57.862Z,49.48
2023-02-19T13:11:57.588Z,45.61
2023-02-19T13:15:01.881Z,48.61
2023-02-19T13:17:53.017Z,49.50
2023-02-19T13:20:32.475Z,49.44
2023-02-19T13:23:52.304Z,48.00
2023-02-19T13:27:10.736Z,49.35
2023-02-19T13:30:23.676Z,47.83
2023-02-19T13:33:30.173Z,47.64
2023-02-19T13:36:06.154Z,47.75
2023-02-19T13:38:40.852Z,49.07
2023-02-19T13:41:29.246Z,47.87
2023-02-19T13:44:08.222Z,48.67
2023-02-19T13:46:43.072Z,49.26
2023-02-19T13:49:23.051Z,49.58
2023-02-19T13:51:59.120Z,49.63
2023-02-19T13:54:40.015Z,48.01
2023-02-19T13:57:23.016Z,47.37
2023-02-19T13:59:52.064Z,48.09
2023-02-19T14:02:22.845Z,44.81
2023-02-19T14:05:02.237Z,44.34
2023-02-19T14:07:53.122Z,46.58
2023-02-19T14:10:59.079Z,48.42
2023-02-19T14:13:51.157Z,49.11
2023-02-19T14:18:03.409Z,48.37
2023-02-19T14:21:16.457Z,47.96
2023-02-19T14:23:52.099Z,46.92
2023-02-19T14:26:22.932Z,47.97
2023-02-19T14:28:52.924Z,46.73
2023-02-19T14:31:41.720Z,47.08
2023-02-19T14:34:31.356Z,47.11
2023-02-19T14:37:11.310Z,47.42
2023-02-19T14:39:51.895Z,46.37
2023-02-19T14:42:29.235Z,47.78
2023-02-19T14:45:01.801Z,46.92
2023-02-19T14:47:34.961Z,46.55
2023-02-19T14:50:17.420Z,46.31
2023-02-19T14:52:51.755Z,46.60
2023-02-19T14:55:35.117Z,47.53
2023-02-19T14:58:33.652Z,47.35
2023-02-19T15:01:12.294Z,46.91
2023-02-19T15:04:02.789Z,48.27
2023-02-19T15:06:44.590Z,48.75
2023-02-19T15:09:16.421Z,48.45
2023-02-19T15:11:44.597Z,47.74
2023-02-19T15:14:22.540Z,44.27
2023-02-19T15:17:02.742Z,44.82
2023-02-19T15:19:37.582Z,45.70
2023-02-19T15:22:21.774Z,44.32
2023-02-19T15:24:49.709Z,44.63
2023-02-19T15:27:27.669Z,45.97
2023-02-19T15:29:55.622Z,47.04
2023-02-19T15:32:29.768Z,44.95
2023-02-19T15:35:06.101Z,45.80
2023-02-19T15:37:36.165Z,46.60
2023-02-19T15:40:08.965Z,46.75
2023-02-19T15:42:47.904Z,45.88
2023-02-19T15:46:25.270Z,42.55
2023-02-19T15:52:06.838Z,40.85
2023-02-19T16:04:18.027Z,45.99
2023-02-19T16:11:58.375Z,49.91
2023-02-19T16:17:52.270Z,51.09
2023-02-19T16:20:40.766Z,51.88
2023-02-19T16:23:27.006Z,52.26
2023-02-19T16:26:14.574Z,51.94
2023-02-19T16:34:54.460Z,46.55
2023-02-19T16:38:41.357Z,44.80
2023-02-19T16:41:42.848Z,46.77
2023-02-19T16:44:27.407Z,46.18
2023-02-19T16:47:06.670Z,43.02
2023-02-19T16:49:37.178Z,44.21
2023-02-19T16:52:07.742Z,44.67
2023-02-19T16:54:40.321Z,46.19
2023-02-19T16:57:13.371Z,46.99
2023-02-19T16:59:43.632Z,46.97
2023-02-19T17:02:36.433Z,47.83
2023-02-19T17:05:36.134Z,45.69
2023-02-19T17:08:40.777Z,46.60
2023-02-19T17:11:23.316Z,46.83
2023-02-19T17:13:59.356Z,46.82
2023-02-19T17:16:51.067Z,46.97
2023-02-19T17:19:26.839Z,47.98
2023-02-19T17:21:55.433Z,48.50
2023-02-19T17:24:31.209Z,48.21
2023-02-19T17:27:32.926Z,47.34
2023-02-19T17:30:02.333Z,46.14
2023-02-19T17:32:36.864Z,45.88
2023-02-19T17:35:41.338Z,46.32
2023-02-19T17:41:26.495Z,45.53
2023-02-19T17:43:54.811Z,45.19
2023-02-19T17:46:50.560Z,44.65
2023-02-19T17:49:50.345Z,45.41
2023-02-19T17:52:52.371Z,44.27
2023-02-19T17:57:30.634Z,42.12
2023-02-19T18:02:30.566Z,42.28
2023-02-19T18:05:03.379Z,41.36
2023-02-19T18:08:11.848Z,41.43
2023-02-19T18:10:49.296Z,42.04
2023-02-19T18:23:34.529Z,48.16
2023-02-19T18:27:10.798Z,46.07
2023-02-19T18:30:19.915Z,46.30
2023-02-19T18:36:59.793Z,43.06
2023-02-19T18:40:17.934Z,44.41
2023-02-19T18:43:08.311Z,44.35
2023-02-19T18:51:45.672Z,45.13
2023-02-19T18:54:32.164Z,45.07
2023-02-19T18:57:05.936Z,43.97
2023-02-19T19:10:57.940Z,45.98
2023-02-19T19:18:23.230Z,50.95
2023-02-19T19:22:18.528Z,49.89
2023-02-19T19:25:51.437Z,48.84
2023-02-19T19:28:54.816Z,50.15
2023-02-19T19:34:34.240Z,51.66
2023-02-19T19:38:01.012Z,50.58
2023-02-19T19:40:42.205Z,52.44
2023-02-19T19:43:16.167Z,51.24
2023-02-19T19:46:02.330Z,50.71
2023-02-19T19:48:35.066Z,50.83
2023-02-19T19:51:16.752Z,51.13
2023-02-19T19:53:51.602Z,50.70
2023-02-19T19:56:28.927Z,55.09
2023-02-19T19:59:04.068Z,53.53
2023-02-19T20:01:39.201Z,54.39
2023-02-19T20:04:13.427Z,56.50
2023-02-19T20:06:54.425Z,58.40
2023-02-19T20:09:25.581Z,59.91
2023-02-19T20:11:59.527Z,58.22
2023-02-19T20:14:33.911Z,56.77
2023-02-19T20:17:05.133Z,57.44
2023-02-19T20:19:58.121Z,57.53
2023-02-19T20:22:29.225Z,56.44
2023-02-19T20:25:18.110Z,58.12
2023-02-19T20:27:53.441Z,58.19
2023-02-19T20:30:30.744Z,59.80
2023-02-19T20:33:06.740Z,59.16
2023-02-19T20:35:42.200Z,58.86
2023-02-19T20:38:21.324Z,58.46
2023-02-19T20:41:11.613Z,56.64
2023-02-19T20:43:45.917Z,56.96
2023-02-19T20:46:19.771Z,57.99
2023-02-19T20:48:51.827Z,59.71
2023-02-19T20:51:24.406Z,58.25
2023-02-19T20:53:59.442Z,60.57
2023-02-19T20:57:04.023Z,60.45
2023-02-19T21:00:11.487Z,60.11
2023-02-19T21:02:52.954Z,59.79
2023-02-19T21:05:30.357Z,60.99
2023-02-19T21:08:13.032Z,60.20
2023-02-19T21:10:41.983Z,59.18
2023-02-19T21:13:18.760Z,59.05
2023-02-19T21:15:46.792Z,59.86
2023-02-19T21:18:41.004Z,60.16
2023-02-19T21:21:47.859Z,60.76
2023-02-19T21:24:47.671Z,61.55
2023-02-19T21:27:34.202Z,60.08
2023-02-19T21:30:20.475Z,59.66
2023-02-19T21:32:49.127Z,59.78
2023-02-19T21:35:19.822Z,59.50
2023-02-19T21:37:49.376Z,60.62
2023-02-19T21:43:06.540Z,61.47
2023-02-19T21:46:31.117Z,60.88
2023-02-19T21:49:09.955Z,61.46
2023-02-19T21:51:55.874Z,59.21
2023-02-19T21:54:53.871Z,58.00
2023-02-19T21:57:24.955Z,57.56
2023-02-19T21:59:52.936Z,57.39
2023-02-19T22:02:22.132Z,57.43
2023-02-19T22:04:53.804Z,56.15
2023-02-19T22:07:22.530Z,55.24
2023-02-19T22:09:51.460Z,53.51
2023-02-19T22:12:26.915Z,52.67
2023-02-19T22:14:57.678Z,54.66
2023-02-19T22:17:29.629Z,55.63
2023-02-19T22:19:57.578Z,54.78
2023-02-19T22:22:29.862Z,57.54
2023-02-19T22:25:00.556Z,57.41
2023-02-19T22:27:29.395Z,59.75
2023-02-19T22:30:03.033Z,60.29
2023-02-19T22:32:31.324Z,60.49
2023-02-19T22:35:01.613Z,60.73
2023-02-19T22:37:29.972Z,61.08
2023-02-19T22:39:57.846Z,63.87
2023-02-19T22:42:36.062Z,64.24
2023-02-19T22:45:07.306Z,64.54
2023-02-19T22:47:41.276Z,63.53
2023-02-19T22:50:19.801Z,64.77
2023-02-19T22:52:47.744Z,64.65
2023-02-19T22:55:20.075Z,65.11
2023-02-19T22:57:50.381Z,65.42
2023-02-19T23:00:20.901Z,64.80
2023-02-19T23:02:48.992Z,64.57
2023-02-19T23:05:19.038Z,65.56
2023-02-19T23:07:46.860Z,64.99
2023-02-19T23:10:14.716Z,64.95
2023-02-19T23:12:42.657Z,64.96
2023-02-19T23:15:11.006Z,64.36
2023-02-19T23:17:43.432Z,63.67
2023-02-19T23:20:11.745Z,64.45
2023-02-19T23:22:40.014Z,64.76
2023-02-19T23:25:08.234Z,64.42
2023-02-19T23:27:36.194Z,63.04
2023-02-19T23:30:09.077Z,65.01
2023-02-19T23:32:39.374Z,65.25
2023-02-19T23:35:07.616Z,63.92
2023-02-19T23:37:40.522Z,64.36
2023-02-19T23:40:10.205Z,64.80
2023-02-19T23:42:38.096Z,65.31
2023-02-19T23:45:06.159Z,65.89
2023-02-19T23:47:36.300Z,66.16
2023-02-19T23:50:07.847Z,68.34
2023-02-19T23:52:35.810Z,67.13
2023-02-19T23:55:07.123Z,66.75
2023-02-19T23:57:37.253Z,67.13
